Time;durP1;ratioP1;P1;durP2;ratioP2;P2;SDS_P1;SDS_P2;PMS_P1;PMS_P2;Temp;Humidity;BMP_temperature;BMP_pressure;BME280_temperature;BME280_humidity;BME280_pressure;Samples;Min_cycle;Max_cycle;Signal;HPM_P1;HPM_P2
2022/12/17 13:05:59;;;;;;;44.27;40.20;;;1.80;26.80;;;;;;5012005;28;20478;-76
2022/12/17 13:08:25;;;;;;;45.63;41.70;;;2.10;26.40;;;;;;5014617;28;20861;-74
2022/12/17 13:10:52;;;;;;;43.87;39.97;;;1.80;25.80;;;;;;5014021;28;20173;-77
2022/12/17 13:13:19;;;;;;;44.63;40.30;;;1.30;26.50;;;;;;5014201;28;20233;-76
2022/12/17 13:15:58;;;;;;;44.70;41.00;;;1.20;27.70;;;;;;5012321;28;20938;-74
2022/12/17 13:18:32;;;;;;;44.72;40.80;;;1.50;26.60;;;;;;5013605;28;20784;-76
2022/12/17 13:21:17;;;;;;;45.17;41.27;;;1.80;26.40;;;;;;5011957;28;20355;-75
2022/12/17 13:23:43;;;;;;;42.03;38.43;;;1.90;26.00;;;;;;5003302;28;20792;-75
2022/12/17 13:26:19;;;;;;;46.70;42.03;;;2.20;27.10;;;;;;5013170;28;20855;-76
2022/12/17 13:29:02;;;;;;;44.83;40.93;;;2.40;27.20;;;;;;5012335;28;20220;-75
2022/12/17 13:31:40;;;;;;;43.73;39.83;;;2.00;26.30;;;;;;5013638;28;20945;-75
2022/12/17 13:34:18;;;;;;;44.70;40.50;;;1.50;26.30;;;;;;5014561;28;20547;-76
2022/12/17 13:36:50;;;;;;;47.67;43.37;;;1.60;26.20;;;;;;5016738;28;20424;-76
2022/12/17 13:39:39;;;;;;;46.57;42.47;;;1.50;26.60;;;;;;5013934;28;20436;-76
2022/12/17 13:42:14;;;;;;;46.60;42.30;;;1.40;26.60;;;;;;5015200;28;20821;-76
2022/12/17 13:44:45;;;;;;;45.87;41.67;;;1.30;27.20;;;;;;5015011;28;20760;-74
2022/12/17 13:47:29;;;;;;;49.00;44.33;;;1.10;26.90;;;;;;5012610;28;20466;-75
2022/12/17 13:49:57;;;;;;;48.47;44.07;;;1.40;27.20;;;;;;5014082;28;20432;-76
2022/12/17 13:52:25;;;;;;;47.47;42.97;;;1.70;25.90;;;;;;5014001;28;20462;-76
2022/12/17 13:54:51;;;;;;;44.57;40.47;;;1.70;25.50;;;;;;5013482;28;20957;-75
2022/12/17 13:57:20;;;;;;;47.33;42.63;;;1.50;26.60;;;;;;5011329;28;20416;-76
2022/12/17 13:59:53;;;;;;;47.17;42.80;;;1.10;26.40;;;;;;5012516;28;21015;-75
2022/12/17 14:02:22;;;;;;;44.77;40.67;;;1.10;27.70;;;;;;5012188;28;20416;-76
2022/12/17 14:04:52;;;;;;;45.03;41.10;;;1.40;26.60;;;;;;5011661;28;20452;-74
2022/12/17 14:07:18;;;;;;;46.37;42.07;;;1.70;26.50;;;;;;5012924;28;20512;-76
2022/12/17 14:09:44;;;;;;;42.07;38.40;;;2.00;25.60;;;;;;5013049;28;21010;-76
2022/12/17 14:12:20;;;;;;;52.90;48.30;;;2.20;24.90;;;;;;5012106;28;20474;-75
2022/12/17 14:14:48;;;;;;;49.73;45.43;;;1.90;25.50;;;;;;5011380;28;20948;-75
2022/12/17 14:17:19;;;;;;;48.17;43.93;;;2.10;25.20;;;;;;5012202;28;20426;-75
2022/12/17 14:19:46;;;;;;;44.60;40.40;;;2.30;24.70;;;;;;5010358;28;20429;-76
2022/12/17 14:22:24;;;;;;;42.57;38.60;;;2.10;25.30;;;;;;5010630;28;20895;-76
2022/12/17 14:24:50;;;;;;;51.13;46.53;;;2.20;24.70;;;;;;5013032;28;20463;-76
2022/12/17 14:27:25;;;;;;;51.33;46.53;;;2.30;25.10;;;;;;5011182;28;20558;-76
2022/12/17 14:29:51;;;;;;;56.20;50.93;;;2.40;24.60;;;;;;5018400;28;20192;-77
2022/12/17 14:32:34;;;;;;;46.47;42.30;;;2.40;24.10;;;;;;5028987;28;20462;-75
2022/12/17 14:35:00;;;;;;;48.23;43.77;;;2.50;24.20;;;;;;5012994;28;20204;-77
2022/12/17 14:37:27;;;;;;;46.20;42.10;;;2.60;24.10;;;;;;5011012;28;20412;-75
2022/12/17 14:39:59;;;;;;;47.50;43.10;;;2.70;23.70;;;;;;5012484;28;20428;-75
2022/12/17 14:42:25;;;;;;;47.40;43.20;;;2.60;23.70;;;;;;5012429;28;20420;-75
2022/12/17 14:44:54;;;;;;;48.23;43.93;;;2.60;23.60;;;;;;5012534;28;20408;-76
2022/12/17 14:47:30;;;;;;;44.80;40.90;;;2.60;23.60;;;;;;5012478;28;20531;-76
2022/12/17 14:50:19;;;;;;;47.70;43.50;;;2.60;23.60;;;;;;5011128;28;20976;-75
2022/12/17 14:52:47;;;;;;;44.20;40.27;;;2.60;23.40;;;;;;5010329;28;20946;-76
2022/12/17 14:55:25;;;;;;;44.90;40.57;;;2.70;23.20;;;;;;5014340;28;20780;-76
2022/12/17 14:57:52;;;;;;;44.30;40.40;;;2.30;23.70;;;;;;5011425;28;20482;-75
2022/12/17 15:00:19;;;;;;;44.03;40.10;;;2.30;23.70;;;;;;5026594;28;20448;-75
2022/12/17 15:02:50;;;;;;;42.87;39.40;;;2.10;24.00;;;;;;5009493;28;20439;-74
2022/12/17 15:05:16;;;;;;;48.30;43.90;;;1.90;24.60;;;;;;5010235;28;20934;-74
2022/12/17 15:07:42;;;;;;;46.17;42.13;;;1.70;26.40;;;;;;5010837;28;20459;-72
2022/12/17 15:10:13;;;;;;;44.77;40.77;;;1.80;25.50;;;;;;5010639;28;20945;-73
2022/12/17 15:12:41;;;;;;;57.80;52.60;;;2.00;26.00;;;;;;5009899;28;20201;-75
2022/12/17 15:15:11;;;;;;;44.43;40.37;;;2.30;25.10;;;;;;5010228;28;20997;-74
2022/12/17 15:17:36;;;;;;;45.70;41.70;;;2.20;24.70;;;;;;5008553;28;20508;-75
2022/12/17 15:20:03;;;;;;;45.10;41.10;;;2.20;25.20;;;;;;5010065;28;20479;-75
2022/12/17 15:22:28;;;;;;;43.70;39.87;;;2.30;25.10;;;;;;5010450;28;20173;-75
2022/12/17 15:24:54;;;;;;;52.47;47.67;;;2.40;24.90;;;;;;5009262;28;20482;-76
2022/12/17 15:27:19;;;;;;;69.90;63.37;;;2.60;24.60;;;;;;5008756;28;20186;-75
2022/12/17 15:29:45;;;;;;;51.33;46.50;;;2.70;25.20;;;;;;5007877;28;20201;-76
2022/12/17 15:32:19;;;;;;;53.07;48.20;;;2.70;24.50;;;;;;5010192;28;20268;-77
2022/12/17 15:34:45;;;;;;;48.63;44.13;;;2.80;24.20;;;;;;5012508;28;20605;-75
2022/12/17 15:37:11;;;;;;;46.50;41.83;;;2.80;23.70;;;;;;5013118;28;20421;-75
2022/12/17 15:39:37;;;;;;;48.73;44.07;;;2.60;23.50;;;;;;5013629;28;20485;-76
2022/12/17 15:44:47;;;;;;;48.70;43.77;;;1.10;26.40;;;;;;5012851;28;20251;-73
2022/12/17 15:47:12;;;;;;;46.67;42.37;;;0.80;27.60;;;;;;5012285;28;20432;-75
2022/12/17 15:49:38;;;;;;;47.50;43.20;;;0.60;27.60;;;;;;5029535;28;20627;-73
2022/12/17 15:52:03;;;;;;;45.23;41.13;;;0.70;27.50;;;;;;5026547;28;20663;-74
2022/12/17 15:54:29;;;;;;;47.73;43.13;;;0.60;27.90;;;;;;5021399;28;20204;-75
2022/12/17 15:56:55;;;;;;;47.93;43.53;;;0.40;27.60;;;;;;5034493;28;20194;-73
2022/12/17 15:59:21;;;;;;;49.00;44.50;;;0.40;28.80;;;;;;5036959;28;20212;-73
2022/12/17 16:01:47;;;;;;;49.20;44.55;;;-0.40;29.40;;;;;;5037019;28;20172;-73
2022/12/17 16:04:12;;;;;;;49.30;44.50;;;-0.70;30.80;;;;;;5028517;28;20219;-74
2022/12/17 16:06:38;;;;;;;50.43;45.23;;;-0.90;31.10;;;;;;5019333;28;20182;-74
2022/12/17 16:09:03;;;;;;;51.20;46.10;;;-0.90;32.50;;;;;;5014918;28;20353;-74
2022/12/17 16:11:29;;;;;;;49.63;44.73;;;-1.10;32.60;;;;;;5014286;28;20212;-73
2022/12/17 16:13:55;;;;;;;51.90;46.97;;;-0.80;31.60;;;;;;5014334;28;20218;-76
2022/12/17 16:16:22;;;;;;;48.67;43.97;;;-0.60;31.90;;;;;;5012452;28;20268;-75
2022/12/17 16:18:47;;;;;;;49.75;44.80;;;-0.40;30.50;;;;;;5013624;28;20954;-75
2022/12/17 16:21:13;;;;;;;50.00;45.00;;;-0.30;30.20;;;;;;5011773;28;20181;-77
2022/12/17 16:23:38;;;;;;;51.93;46.43;;;-0.40;29.60;;;;;;5016961;28;20180;-76
2022/12/17 16:26:07;;;;;;;50.03;45.00;;;-0.40;30.00;;;;;;5014755;28;20174;-76
2022/12/17 16:28:34;;;;;;;51.70;46.70;;;-0.50;30.20;;;;;;5016673;28;20226;-78
2022/12/17 16:31:09;;;;;;;50.47;45.28;;;-0.60;30.50;;;;;;5029627;28;20220;-76
2022/12/17 16:33:39;;;;;;;51.85;46.67;;;-0.20;30.00;;;;;;5011124;28;20611;-76
2022/12/17 16:36:09;;;;;;;51.92;46.25;;;-0.10;29.90;;;;;;5006163;28;20174;-76
2022/12/17 16:38:40;;;;;;;53.00;48.00;;;0.10;29.40;;;;;;5013498;28;20203;-75
2022/12/17 16:41:06;;;;;;;51.40;46.35;;;0.50;28.60;;;;;;5013127;28;20280;-76
2022/12/17 16:43:32;;;;;;;52.37;47.33;;;0.60;27.80;;;;;;5013241;28;20224;-77
2022/12/17 16:45:58;;;;;;;52.65;47.65;;;0.60;28.10;;;;;;5013877;28;20193;-77
2022/12/17 16:48:23;;;;;;;49.80;45.20;;;0.70;27.90;;;;;;5013205;28;20184;-76
2022/12/17 16:50:50;;;;;;;49.83;45.07;;;0.20;28.40;;;;;;5012710;28;20179;-76
2022/12/17 16:53:16;;;;;;;48.45;43.97;;;0.00;28.40;;;;;;5013062;28;20212;-76
2022/12/17 16:55:47;;;;;;;51.42;46.22;;;-0.40;29.70;;;;;;5013512;28;20200;-76
2022/12/17 16:58:14;;;;;;;49.55;44.58;;;-0.70;31.10;;;;;;5012923;28;20665;-74
2022/12/17 17:00:40;;;;;;;51.88;46.78;;;-0.60;31.00;;;;;;5014745;28;20228;-75
2022/12/17 17:03:07;;;;;;;54.00;47.95;;;-0.30;30.10;;;;;;5014692;28;20658;-76
2022/12/17 17:05:34;;;;;;;53.40;44.50;;;-0.40;30.30;;;;;;5013099;28;20272;-76
2022/12/17 17:08:01;;;;;;;51.25;45.63;;;-0.50;30.70;;;;;;5014462;28;20580;-76
2022/12/17 17:10:27;;;;;;;52.88;47.67;;;-0.40;30.30;;;;;;5012914;28;20629;-76
2022/12/17 17:12:53;;;;;;;53.50;47.95;;;-0.10;29.70;;;;;;5014323;28;20232;-76
2022/12/17 17:15:20;;;;;;;50.88;45.78;;;0.10;29.10;;;;;;5013583;28;20181;-76
2022/12/17 17:17:46;;;;;;;52.72;47.53;;;0.30;28.60;;;;;;5014972;28;20531;-75
2022/12/17 17:20:11;;;;;;;50.35;45.15;;;0.30;27.90;;;;;;5014149;28;20220;-76
2022/12/17 17:22:37;;;;;;;49.93;45.10;;;-0.10;28.40;;;;;;5015627;28;20182;-77
2022/12/17 17:25:03;;;;;;;50.73;45.93;;;-0.20;29.50;;;;;;5012723;28;20664;-76
2022/12/17 17:27:29;;;;;;;52.45;47.38;;;-0.10;29.30;;;;;;5013211;28;20524;-77
2022/12/17 17:29:55;;;;;;;50.20;45.73;;;0.00;28.70;;;;;;5014002;28;20192;-77
2022/12/17 17:32:21;;;;;;;52.57;47.50;;;-0.10;29.70;;;;;;5012494;28;20882;-76
2022/12/17 17:34:46;;;;;;;54.40;48.60;;;0.10;29.10;;;;;;5016596;28;20180;-76
2022/12/17 17:37:12;;;;;;;54.47;49.20;;;0.30;28.30;;;;;;5012695;28;20420;-75
2022/12/17 17:39:38;;;;;;;58.10;52.47;;;0.50;28.40;;;;;;5013577;28;20319;-77
2022/12/17 17:42:04;;;;;;;51.20;46.13;;;0.80;28.40;;;;;;5013740;28;20807;-76
2022/12/17 17:44:29;;;;;;;52.53;47.73;;;0.90;27.10;;;;;;5014184;28;20188;-76
2022/12/17 17:46:55;;;;;;;52.03;46.93;;;0.90;26.40;;;;;;5013556;28;20408;-76
2022/12/17 17:49:21;;;;;;;52.97;47.80;;;0.80;26.20;;;;;;5010762;28;20277;-74
2022/12/17 17:51:46;;;;;;;52.10;47.30;;;0.70;26.20;;;;;;5012840;28;20181;-76
2022/12/17 17:54:12;;;;;;;52.50;47.33;;;0.90;26.20;;;;;;5013344;28;20284;-76
2022/12/17 17:56:40;;;;;;;54.57;49.40;;;1.00;26.30;;;;;;5012334;28;20170;-76
2022/12/17 17:59:09;;;;;;;56.90;51.13;;;1.00;26.10;;;;;;5012334;28;20189;-76
2022/12/17 18:01:40;;;;;;;54.60;48.77;;;1.20;25.40;;;;;;5012065;28;20422;-76
2022/12/17 18:04:08;;;;;;;55.77;50.60;;;1.10;24.80;;;;;;5013626;28;20435;-77
2022/12/17 18:06:36;;;;;;;55.50;50.30;;;0.80;25.50;;;;;;5013330;28;20409;-77
2022/12/17 18:09:01;;;;;;;56.77;51.13;;;0.60;26.10;;;;;;5013194;28;20478;-77
2022/12/17 18:11:29;;;;;;;55.77;50.07;;;0.60;26.10;;;;;;5013239;28;20918;-76
2022/12/17 18:13:57;;;;;;;55.57;50.03;;;0.60;26.10;;;;;;5011589;28;20220;-76
2022/12/17 18:16:26;;;;;;;58.33;52.77;;;0.70;26.10;;;;;;5012225;28;20412;-76
2022/12/17 18:18:54;;;;;;;58.80;53.03;;;0.60;26.00;;;;;;5011563;28;20443;-77
2022/12/17 18:21:20;;;;;;;58.50;53.00;;;0.60;26.10;;;;;;5012309;28;20419;-76
2022/12/17 18:23:46;;;;;;;57.40;51.77;;;0.60;25.50;;;;;;5013545;28;20412;-77
2022/12/17 18:26:15;;;;;;;53.40;48.07;;;0.60;25.40;;;;;;5014704;28;20490;-75
2022/12/17 18:28:42;;;;;;;54.00;48.97;;;0.70;25.50;;;;;;5012026;28;20197;-77
2022/12/17 18:31:11;;;;;;;54.70;49.50;;;0.70;25.10;;;;;;5016948;28;20427;-77
2022/12/17 18:33:38;;;;;;;56.20;50.63;;;0.60;25.60;;;;;;5015914;28;20482;-77
2022/12/17 18:36:15;;;;;;;58.50;52.80;;;0.60;25.60;;;;;;5025052;28;20557;-78
2022/12/17 18:38:42;;;;;;;55.17;49.78;;;0.60;25.00;;;;;;5023042;28;20201;-77
2022/12/17 18:44:00;;;;;;;58.13;52.25;;;0.20;26.20;;;;;;5019606;28;20780;-78
2022/12/17 18:46:26;;;;;;;53.60;48.27;;;0.10;26.10;;;;;;5021258;28;20173;-78
2022/12/17 18:48:55;;;;;;;52.70;47.67;;;-0.10;25.90;;;;;;5013285;28;20508;-75
2022/12/17 18:51:21;;;;;;;53.38;48.30;;;0.00;26.80;;;;;;5013021;28;20827;-76
2022/12/17 18:53:48;;;;;;;53.67;48.63;;;0.10;25.80;;;;;;5013301;28;20229;-75
2022/12/17 18:56:14;;;;;;;56.70;50.80;;;0.10;26.20;;;;;;5010473;28;20423;-76
2022/12/17 18:58:40;;;;;;;56.87;50.90;;;0.20;26.40;;;;;;5011759;28;20438;-76
2022/12/17 19:01:06;;;;;;;53.47;48.03;;;0.30;25.90;;;;;;5012120;28;20408;-77
2022/12/17 19:03:32;;;;;;;55.63;50.10;;;0.40;25.90;;;;;;5012916;28;20423;-76
2022/12/17 19:05:58;;;;;;;55.97;50.50;;;0.40;25.90;;;;;;5011004;28;20196;-77
2022/12/17 19:08:24;;;;;;;55.67;50.20;;;0.20;25.80;;;;;;5011725;28;20177;-75
2022/12/17 19:10:52;;;;;;;58.03;52.23;;;0.20;25.80;;;;;;5015663;28;20420;-76
2022/12/17 19:13:18;;;;;;;54.72;49.60;;;0.10;26.30;;;;;;5011388;28;20234;-77
2022/12/17 19:15:43;;;;;;;53.40;48.10;;;0.10;25.80;;;;;;5019996;28;20171;-76
2022/12/17 19:18:09;;;;;;;53.43;48.33;;;0.00;26.40;;;;;;5030672;28;20234;-74
2022/12/17 19:20:34;;;;;;;55.10;50.07;;;0.10;26.00;;;;;;5030841;28;20179;-75
2022/12/17 19:23:00;;;;;;;51.37;46.37;;;-0.20;26.30;;;;;;5030129;28;20180;-74
2022/12/17 19:25:25;;;;;;;50.50;45.50;;;-0.70;27.10;;;;;;5030101;28;20538;-76
2022/12/17 19:27:51;;;;;;;52.57;47.20;;;-1.00;28.10;;;;;;5031758;28;20545;-75
2022/12/17 19:30:17;;;;;;;51.27;46.33;;;-1.20;28.90;;;;;;5031215;28;20195;-75
2022/12/17 19:32:42;;;;;;;54.37;48.30;;;-1.50;29.20;;;;;;5031614;28;20614;-75
2022/12/17 19:35:08;;;;;;;48.23;43.33;;;-1.40;29.30;;;;;;5031940;28;20409;-76
2022/12/17 19:37:33;;;;;;;48.90;43.23;;;-1.60;29.70;;;;;;5030657;28;20175;-76
2022/12/17 19:39:59;;;;;;;47.97;42.83;;;-1.90;30.50;;;;;;5031166;28;20194;-77
2022/12/17 19:42:24;;;;;;;58.50;44.23;;;-2.10;31.10;;;;;;5032991;28;20178;-77
2022/12/17 19:44:51;;;;;;;49.33;43.97;;;-2.10;31.50;;;;;;5031680;28;20176;-76
2022/12/17 19:47:17;;;;;;;47.70;42.78;;;-2.10;31.30;;;;;;5031999;28;20178;-76
2022/12/17 19:49:43;;;;;;;49.53;44.00;;;-2.10;31.40;;;;;;5031558;28;20203;-77
2022/12/17 19:52:08;;;;;;;47.50;42.73;;;-2.00;31.60;;;;;;5033901;28;20175;-76
2022/12/17 19:54:34;;;;;;;49.10;42.23;;;-1.80;30.80;;;;;;5030417;28;20279;-77
2022/12/17 19:57:00;;;;;;;44.30;39.70;;;-2.00;31.10;;;;;;5033104;28;20182;-77
2022/12/17 19:59:25;;;;;;;45.57;40.77;;;-1.80;31.50;;;;;;5035616;28;20199;-77
2022/12/17 20:01:51;;;;;;;46.27;41.20;;;-1.80;30.20;;;;;;5034807;28;20176;-77
2022/12/17 20:04:17;;;;;;;41.33;36.93;;;-1.90;30.80;;;;;;5033565;28;20661;-78
2022/12/17 20:06:43;;;;;;;46.67;41.40;;;-1.90;30.00;;;;;;5031821;28;20553;-77
2022/12/17 20:09:09;;;;;;;47.83;40.10;;;-2.10;30.90;;;;;;5035184;28;20199;-76
2022/12/17 20:11:38;;;;;;;45.77;40.93;;;-1.90;30.80;;;;;;5017153;28;20265;-78
2022/12/17 20:14:11;;;;;;;46.40;41.28;;;-1.50;29.90;;;;;;5011428;28;20212;-78
2022/12/17 20:16:39;;;;;;;50.35;40.40;;;-1.20;28.60;;;;;;5013933;28;20227;-77
2022/12/17 20:19:12;;;;;;;47.47;42.58;;;-1.00;28.70;;;;;;5014459;28;20202;-77
2022/12/17 20:21:38;;;;;;;47.38;42.67;;;-1.20;28.80;;;;;;5017966;28;20249;-79
2022/12/17 20:24:04;;;;;;;46.17;41.15;;;-1.20;27.80;;;;;;5020168;28;20271;-78
2022/12/17 20:26:30;;;;;;;48.43;43.20;;;-1.40;28.40;;;;;;5022337;28;20173;-77
2022/12/17 20:28:56;;;;;;;47.23;42.43;;;-1.50;28.40;;;;;;5022424;28;20467;-78
2022/12/17 20:31:22;;;;;;;47.28;41.40;;;-1.70;29.60;;;;;;5022093;28;20440;-79
2022/12/17 20:33:47;;;;;;;43.43;39.03;;;-2.10;29.90;;;;;;5028585;28;20198;-77
2022/12/17 20:36:16;;;;;;;45.47;40.73;;;-2.40;30.70;;;;;;5031781;28;20170;-76
2022/12/17 20:38:43;;;;;;;45.97;41.30;;;-2.10;30.60;;;;;;5036586;28;20193;-78
2022/12/17 20:41:19;;;;;;;48.88;43.45;;;-1.90;29.80;;;;;;5037387;28;20181;-76
2022/12/17 20:43:45;;;;;;;45.42;40.60;;;-1.60;29.60;;;;;;5036069;28;20208;-76
2022/12/17 20:46:11;;;;;;;47.63;42.73;;;-1.30;29.00;;;;;;5019473;28;20187;-75
2022/12/17 20:48:39;;;;;;;45.00;40.70;;;-1.10;29.00;;;;;;5024611;28;20441;-77
2022/12/17 20:51:06;;;;;;;48.45;43.42;;;-0.90;27.60;;;;;;5036390;28;20853;-78
2022/12/17 20:53:34;;;;;;;48.38;43.33;;;-0.70;27.40;;;;;;5037260;28;20567;-77
2022/12/17 20:56:02;;;;;;;48.55;42.53;;;-0.50;26.50;;;;;;5033411;28;20268;-76
2022/12/17 20:58:28;;;;;;;47.33;42.53;;;-0.30;25.70;;;;;;5037452;28;20169;-77
2022/12/17 21:01:21;;;;;;;47.87;42.70;;;-0.70;26.50;;;;;;5037052;28;20178;-76
2022/12/17 21:03:48;;;;;;;58.42;43.45;;;-0.90;27.50;;;;;;5041375;28;20447;-76
2022/12/17 21:06:23;;;;;;;46.45;41.50;;;-1.30;28.00;;;;;;5034478;28;20198;-75
2022/12/17 21:08:50;;;;;;;46.78;41.67;;;-1.70;28.50;;;;;;5035140;28;20684;-74
2022/12/17 21:11:21;;;;;;;47.22;42.25;;;-1.90;29.10;;;;;;5034525;28;20181;-77
2022/12/17 21:13:47;;;;;;;47.13;42.53;;;-1.80;28.90;;;;;;5030888;28;20210;-77
2022/12/17 21:16:16;;;;;;;43.67;39.43;;;-1.60;28.90;;;;;;5009610;28;20191;-76
2022/12/17 21:18:41;;;;;;;47.30;41.95;;;-1.50;28.70;;;;;;5009017;28;20198;-77
2022/12/17 21:21:10;;;;;;;45.13;40.63;;;-1.60;28.60;;;;;;5015274;28;20227;-77
2022/12/17 21:23:37;;;;;;;45.83;41.05;;;-1.60;29.00;;;;;;5009829;28;20184;-76
2022/12/17 21:26:18;;;;;;;46.35;41.85;;;-1.40;28.50;;;;;;5011039;28;20179;-75
2022/12/17 21:28:46;;;;;;;48.40;43.30;;;-1.40;28.70;;;;;;5011591;28;20190;-76
2022/12/17 21:31:22;;;;;;;47.15;42.45;;;-1.20;28.40;;;;;;5009953;28;20252;-78
2022/12/17 21:33:49;;;;;;;49.03;43.75;;;-1.30;28.30;;;;;;5013748;28;20570;-77
2022/12/17 21:36:16;;;;;;;49.53;44.17;;;-1.40;28.60;;;;;;5009441;28;20179;-76
2022/12/17 21:38:42;;;;;;;46.22;41.53;;;-1.40;28.50;;;;;;5009868;28;20686;-76
2022/12/17 21:41:14;;;;;;;46.43;41.90;;;-1.30;28.80;;;;;;5014725;28;20184;-76
2022/12/17 21:43:40;;;;;;;47.25;42.30;;;-1.00;28.00;;;;;;5038397;28;20267;-77
2022/12/17 21:46:07;;;;;;;46.33;41.90;;;-0.70;27.20;;;;;;5020384;28;20783;-77
2022/12/17 21:48:34;;;;;;;45.72;41.17;;;-1.00;27.60;;;;;;5021940;28;20868;-77
2022/12/17 21:51:02;;;;;;;47.97;43.08;;;-0.80;27.80;;;;;;5041031;28;20180;-75
2022/12/17 21:53:31;;;;;;;46.88;42.28;;;-0.80;27.40;;;;;;5018973;28;20232;-76
2022/12/17 21:56:13;;;;;;;47.38;42.40;;;-0.70;27.30;;;;;;5034495;28;20209;-77
2022/12/17 21:58:39;;;;;;;46.22;41.85;;;-0.40;26.90;;;;;;5027438;28;20200;-76
2022/12/17 22:01:25;;;;;;;46.20;41.60;;;-0.30;26.20;;;;;;5013031;28;20610;-78
2022/12/17 22:03:52;;;;;;;47.05;42.30;;;-0.60;26.10;;;;;;5012864;28;20181;-77
2022/12/17 22:06:19;;;;;;;47.88;42.95;;;-0.80;26.30;;;;;;5013271;28;20173;-77
2022/12/17 22:08:45;;;;;;;45.20;40.80;;;-0.50;26.80;;;;;;5012320;28;20235;-77
2022/12/17 22:11:12;;;;;;;46.43;41.93;;;-0.20;26.60;;;;;;5011647;28;20555;-78
2022/12/17 22:16:24;;;;;;;42.50;38.35;;;0.00;25.70;;;;;;5013295;28;20414;-78
2022/12/17 22:18:51;;;;;;;45.33;40.83;;;-0.20;24.90;;;;;;5011539;28;20194;-78
2022/12/17 22:21:17;;;;;;;48.83;44.13;;;-0.50;26.20;;;;;;5011246;28;20510;-77
2022/12/17 22:23:46;;;;;;;50.00;43.50;;;-0.40;26.50;;;;;;5012740;28;20774;-77
2022/12/17 22:26:14;;;;;;;48.22;43.58;;;-0.30;25.60;;;;;;5011308;28;20181;-77
2022/12/17 22:28:39;;;;;;;45.38;41.35;;;-0.40;26.00;;;;;;5010853;28;20189;-78
2022/12/17 22:33:57;;;;;;;50.13;45.42;;;-0.10;25.60;;;;;;5011911;28;20279;-77
2022/12/17 22:36:23;;;;;;;47.97;43.17;;;-0.10;25.40;;;;;;5011577;28;20205;-77
2022/12/17 22:38:48;;;;;;;47.97;43.03;;;-0.60;25.70;;;;;;5014793;28;20641;-77
2022/12/17 22:43:28;;;;;;;48.80;42.30;;;-0.80;26.90;;;;;;5015979;28;20264;-77
2022/12/17 22:44:03;;;;;;;45.83;41.28;;;-0.70;26.50;;;;;;5012759;28;20212;-76
2022/12/17 22:46:32;;;;;;;46.42;42.13;;;-0.70;26.50;;;;;;5012791;28;20268;-77
2022/12/17 22:48:58;;;;;;;47.03;42.53;;;-1.10;27.40;;;;;;5012387;28;20197;-77
2022/12/17 22:51:24;;;;;;;46.77;42.17;;;-1.30;27.70;;;;;;5012218;28;20247;-76
2022/12/17 22:53:50;;;;;;;45.50;40.97;;;-1.30;28.30;;;;;;5013834;28;20220;-76
2022/12/17 22:56:17;;;;;;;45.80;41.25;;;-1.30;27.80;;;;;;5015657;28;20182;-77
2022/12/17 22:58:42;;;;;;;44.45;40.22;;;-1.20;28.20;;;;;;5012304;28;20208;-77
2022/12/17 23:01:08;;;;;;;43.07;39.03;;;-1.00;28.50;;;;;;5010887;28;20185;-76
2022/12/17 23:03:33;;;;;;;48.70;44.03;;;-0.60;27.20;;;;;;5028122;28;20208;-74
2022/12/17 23:06:16;;;;;;;43.00;39.00;;;-0.60;26.70;;;;;;5012445;28;20218;-75
2022/12/17 23:08:42;;;;;;;44.33;40.17;;;-0.60;26.60;;;;;;5011875;28;20258;-76
2022/12/17 23:11:17;;;;;;;47.47;42.45;;;-0.70;27.10;;;;;;5012643;28;20165;-76
2022/12/17 23:13:46;;;;;;;46.70;42.30;;;-0.40;26.80;;;;;;5010281;28;20199;-76
2022/12/17 23:16:12;;;;;;;45.45;41.35;;;-0.20;26.10;;;;;;5010505;28;20177;-76
2022/12/17 23:18:39;;;;;;;46.67;42.15;;;-0.10;25.60;;;;;;5013331;28;20229;-78
2022/12/17 23:21:10;;;;;;;44.80;40.67;;;-0.30;26.00;;;;;;5011143;28;20191;-75
2022/12/17 23:23:36;;;;;;;48.80;44.17;;;-0.60;26.00;;;;;;5010016;28;20465;-76
2022/12/17 23:26:09;;;;;;;46.33;42.08;;;-0.70;26.00;;;;;;5011703;28;20169;-76
2022/12/17 23:28:35;;;;;;;48.28;43.60;;;-0.70;26.40;;;;;;5011609;28;20204;-76
2022/12/17 23:31:16;;;;;;;44.70;40.35;;;-0.70;26.20;;;;;;5011902;28;20177;-77
2022/12/17 23:33:47;;;;;;;47.00;42.30;;;-0.90;27.10;;;;;;5011261;28;20563;-77
2022/12/17 23:36:16;;;;;;;61.08;54.47;;;-0.70;27.30;;;;;;5010740;28;20180;-76
2022/12/17 23:38:46;;;;;;;52.42;46.88;;;-0.90;27.60;;;;;;5011169;28;20204;-76
2022/12/17 23:41:26;;;;;;;45.80;41.30;;;-0.90;27.70;;;;;;5011593;28;20205;-77
2022/12/17 23:43:54;;;;;;;47.45;42.65;;;-0.80;26.90;;;;;;5011589;28;20205;-77
2022/12/17 23:46:24;;;;;;;51.25;45.85;;;-0.70;26.20;;;;;;5011158;28;20307;-77
2022/12/17 23:48:52;;;;;;;47.13;42.22;;;-0.60;26.20;;;;;;4994719;28;20274;-76
2022/12/17 23:51:31;;;;;;;47.15;42.40;;;-0.90;26.60;;;;;;5012384;28;20185;-77
2022/12/17 23:53:57;;;;;;;43.65;39.33;;;-1.00;26.80;;;;;;5011794;28;20180;-77
2022/12/17 23:56:25;;;;;;;49.15;43.90;;;-0.80;27.20;;;;;;5013708;28;20188;-77
2022/12/17 23:58:59;;;;;;;48.03;43.40;;;-1.00;27.50;;;;;;5014881;28;20194;-77
